49VA weather

Rappahannock General Hospital Heliport
Kilmarnnock, Virginia, United States

Public forecast

Using degrees Fahrenheit for public forecast. Weather courtesy of forecast.io.

Closest aviation weather report (METAR) to Rappahannock General Hospital Heliport

Report is more than 6 hours old.

Closest report is Tangier Island Airport, 19.7 nm (36.5 km) ENE. Retrieved 2019/10/16 19:15 UTC (3 months ago):

KTGI 161915Z AUTO 17018G28KT 2 1/2SM BKN008 BKN016 OVC033 20/19 A2947 RMK AO1 P0011 T01960187

Closest aviation forecast (TAF) to Rappahannock General Hospital Heliport

Closest forecast is Newport News Williamsburg International Airport, 34.8 nm (64.4 km) S. Retrieved 2020-01-22 00:22 UTC (1 hour ago):

TAF KPHF 212320Z 2200/2224 35006KT P6SM SKC FM220800 02008KT P6SM SKC